sensor_id;sensor_type;location;lat;lon;timestamp;pressure;altitude;pressure_sealevel;temperature;humidity
78825;BME280;68176;45.554;10.220;2024-02-21T00:01:47;100853.88;;;14.49;62.32
78825;BME280;68176;45.554;10.220;2024-02-21T00:04:17;100857.34;;;14.49;62.60
78825;BME280;68176;45.554;10.220;2024-02-21T00:06:47;100844.41;;;14.46;62.53
78825;BME280;68176;45.554;10.220;2024-02-21T00:09:17;100856.63;;;14.47;62.83
78825;BME280;68176;45.554;10.220;2024-02-21T00:11:47;100846.31;;;14.44;62.71
78825;BME280;68176;45.554;10.220;2024-02-21T00:14:17;100852.34;;;14.46;62.76
78825;BME280;68176;45.554;10.220;2024-02-21T00:16:47;100843.97;;;14.41;62.76
78825;BME280;68176;45.554;10.220;2024-02-21T00:19:17;100850.75;;;14.43;62.51
78825;BME280;68176;45.554;10.220;2024-02-21T00:21:47;100850.22;;;14.40;62.66
78825;BME280;68176;45.554;10.220;2024-02-21T00:24:17;100847.59;;;14.40;62.57
78825;BME280;68176;45.554;10.220;2024-02-21T00:26:47;100854.50;;;14.41;62.76
78825;BME280;68176;45.554;10.220;2024-02-21T00:29:17;100858.84;;;14.42;62.94
78825;BME280;68176;45.554;10.220;2024-02-21T00:31:48;100844.94;;;14.40;62.56
78825;BME280;68176;45.554;10.220;2024-02-21T00:34:17;100837.28;;;14.37;62.46
78825;BME280;68176;45.554;10.220;2024-02-21T00:36:47;100834.66;;;14.37;62.75
78825;BME280;68176;45.554;10.220;2024-02-21T00:39:17;100840.16;;;14.34;62.62
78825;BME280;68176;45.554;10.220;2024-02-21T00:41:47;100844.38;;;14.36;62.59
78825;BME280;68176;45.554;10.220;2024-02-21T00:44:17;100842.00;;;14.33;62.79
78825;BME280;68176;45.554;10.220;2024-02-21T00:46:47;100837.06;;;14.29;62.71
78825;BME280;68176;45.554;10.220;2024-02-21T00:49:17;100848.19;;;14.32;62.63
78825;BME280;68176;45.554;10.220;2024-02-21T00:51:47;100840.41;;;14.31;62.48
78825;BME280;68176;45.554;10.220;2024-02-21T00:54:20;100840.53;;;14.29;62.44
78825;BME280;68176;45.554;10.220;2024-02-21T00:56:48;100838.75;;;14.30;62.46
78825;BME280;68176;45.554;10.220;2024-02-21T00:59:18;100839.69;;;14.29;62.66
78825;BME280;68176;45.554;10.220;2024-02-21T01:01:47;100832.75;;;14.28;62.57
78825;BME280;68176;45.554;10.220;2024-02-21T01:04:18;100828.47;;;14.27;62.50
78825;BME280;68176;45.554;10.220;2024-02-21T01:06:47;100845.25;;;14.26;62.64
78825;BME280;68176;45.554;10.220;2024-02-21T01:09:18;100839.28;;;14.24;62.42
78825;BME280;68176;45.554;10.220;2024-02-21T01:11:47;100830.38;;;14.25;62.60
78825;BME280;68176;45.554;10.220;2024-02-21T01:14:17;100830.06;;;14.18;62.53
78825;BME280;68176;45.554;10.220;2024-02-21T01:16:50;100822.97;;;14.19;62.59
78825;BME280;68176;45.554;10.220;2024-02-21T01:19:17;100816.69;;;14.10;62.45
78825;BME280;68176;45.554;10.220;2024-02-21T01:21:48;100834.25;;;14.21;62.69
78825;BME280;68176;45.554;10.220;2024-02-21T01:24:18;100827.56;;;14.17;62.65
78825;BME280;68176;45.554;10.220;2024-02-21T01:26:47;100812.00;;;14.14;62.61
78825;BME280;68176;45.554;10.220;2024-02-21T01:29:18;100809.38;;;14.14;62.67
78825;BME280;68176;45.554;10.220;2024-02-21T01:31:47;100813.78;;;14.13;62.57
78825;BME280;68176;45.554;10.220;2024-02-21T01:34:18;100817.41;;;14.12;62.70
78825;BME280;68176;45.554;10.220;2024-02-21T01:36:48;100819.22;;;14.12;62.74
78825;BME280;68176;45.554;10.220;2024-02-21T01:39:17;100808.09;;;14.08;62.51
78825;BME280;68176;45.554;10.220;2024-02-21T01:41:48;100820.28;;;14.09;62.75
78825;BME280;68176;45.554;10.220;2024-02-21T01:44:18;100809.16;;;14.06;62.68
78825;BME280;68176;45.554;10.220;2024-02-21T01:46:48;100816.13;;;14.07;62.58
78825;BME280;68176;45.554;10.220;2024-02-21T01:49:21;100802.25;;;14.05;62.69
78825;BME280;68176;45.554;10.220;2024-02-21T01:51:48;100811.94;;;14.04;62.63
78825;BME280;68176;45.554;10.220;2024-02-21T01:54:18;100814.69;;;14.03;62.55
78825;BME280;68176;45.554;10.220;2024-02-21T01:56:48;100802.75;;;13.99;62.76
78825;BME280;68176;45.554;10.220;2024-02-21T01:59:18;100812.22;;;14.01;62.70
78825;BME280;68176;45.554;10.220;2024-02-21T02:01:48;100805.41;;;13.99;62.68
78825;BME280;68176;45.554;10.220;2024-02-21T02:04:19;100810.69;;;13.99;62.59
78825;BME280;68176;45.554;10.220;2024-02-21T02:06:48;100814.97;;;14.00;62.55
78825;BME280;68176;45.554;10.220;2024-02-21T02:09:18;100818.84;;;13.96;62.83
78825;BME280;68176;45.554;10.220;2024-02-21T02:11:48;100808.41;;;13.94;62.59
78825;BME280;68176;45.554;10.220;2024-02-21T02:14:19;100810.94;;;13.96;62.67
78825;BME280;68176;45.554;10.220;2024-02-21T02:16:48;100805.19;;;13.90;62.53
78825;BME280;68176;45.554;10.220;2024-02-21T02:19:18;100804.25;;;13.92;62.65
78825;BME280;68176;45.554;10.220;2024-02-21T02:21:54;100807.84;;;13.90;62.83
78825;BME280;68176;45.554;10.220;2024-02-21T02:24:23;100803.53;;;13.89;62.55
78825;BME280;68176;45.554;10.220;2024-02-21T02:26:49;100792.53;;;13.84;62.92
78825;BME280;68176;45.554;10.220;2024-02-21T02:29:18;100788.09;;;13.85;62.67
78825;BME280;68176;45.554;10.220;2024-02-21T02:31:49;100796.69;;;13.87;62.59
78825;BME280;68176;45.554;10.220;2024-02-21T02:34:18;100797.94;;;13.83;62.86
78825;BME280;68176;45.554;10.220;2024-02-21T02:36:48;100798.78;;;13.83;62.74
78825;BME280;68176;45.554;10.220;2024-02-21T02:39:18;100799.75;;;13.82;62.87
78825;BME280;68176;45.554;10.220;2024-02-21T02:41:48;100800.69;;;13.81;62.65
78825;BME280;68176;45.554;10.220;2024-02-21T02:44:18;100803.34;;;13.81;62.63
78825;BME280;68176;45.554;10.220;2024-02-21T02:46:48;100802.66;;;13.79;62.79
78825;BME280;68176;45.554;10.220;2024-02-21T02:49:18;100800.28;;;13.76;62.62
78825;BME280;68176;45.554;10.220;2024-02-21T02:51:48;100801.81;;;13.79;62.63
78825;BME280;68176;45.554;10.220;2024-02-21T02:54:18;100792.34;;;13.76;62.58
78825;BME280;68176;45.554;10.220;2024-02-21T02:56:49;100800.97;;;13.78;62.63
78825;BME280;68176;45.554;10.220;2024-02-21T02:59:18;100796.66;;;13.77;62.86
78825;BME280;68176;45.554;10.220;2024-02-21T03:01:48;100792.47;;;13.75;62.86
78825;BME280;68176;45.554;10.220;2024-02-21T03:04:18;100799.44;;;13.76;62.83
78825;BME280;68176;45.554;10.220;2024-02-21T03:06:48;100801.47;;;13.72;62.68
78825;BME280;68176;45.554;10.220;2024-02-21T03:09:18;100812.72;;;13.74;62.75
78825;BME280;68176;45.554;10.220;2024-02-21T03:11:48;100804.13;;;13.72;62.55
78825;BME280;68176;45.554;10.220;2024-02-21T03:14:18;100805.81;;;13.73;62.66
78825;BME280;68176;45.554;10.220;2024-02-21T03:16:51;100807.72;;;13.71;62.81
78825;BME280;68176;45.554;10.220;2024-02-21T03:19:18;100806.91;;;13.71;62.51
78825;BME280;68176;45.554;10.220;2024-02-21T03:21:52;100792.81;;;13.61;62.66
78825;BME280;68176;45.554;10.220;2024-02-21T03:24:18;100813.13;;;13.70;62.49
78825;BME280;68176;45.554;10.220;2024-02-21T03:26:48;100807.00;;;13.69;63.09
78825;BME280;68176;45.554;10.220;2024-02-21T03:29:18;100802.00;;;13.66;62.69
78825;BME280;68176;45.554;10.220;2024-02-21T03:31:48;100802.00;;;13.66;62.72
78825;BME280;68176;45.554;10.220;2024-02-21T03:34:18;100803.94;;;13.64;62.83
78825;BME280;68176;45.554;10.220;2024-02-21T03:36:48;100804.19;;;13.61;62.77
78825;BME280;68176;45.554;10.220;2024-02-21T03:39:18;100806.09;;;13.59;62.78
78825;BME280;68176;45.554;10.220;2024-02-21T03:41:48;100818.06;;;13.63;62.83
78825;BME280;68176;45.554;10.220;2024-02-21T03:44:18;100815.00;;;13.58;62.72
78825;BME280;68176;45.554;10.220;2024-02-21T03:46:48;100812.22;;;13.60;62.59
78825;BME280;68176;45.554;10.220;2024-02-21T03:49:18;100815.81;;;13.59;62.70
78825;BME280;68176;45.554;10.220;2024-02-21T03:51:48;100819.41;;;13.58;63.02
78825;BME280;68176;45.554;10.220;2024-02-21T03:54:19;100822.91;;;13.58;62.55
78825;BME280;68176;45.554;10.220;2024-02-21T03:56:48;100821.47;;;13.54;62.96
78825;BME280;68176;45.554;10.220;2024-02-21T03:59:18;100816.19;;;13.54;62.89
78825;BME280;68176;45.554;10.220;2024-02-21T04:01:54;100816.31;;;13.53;62.69
78825;BME280;68176;45.554;10.220;2024-02-21T04:04:21;100818.09;;;13.52;62.98
78825;BME280;68176;45.554;10.220;2024-02-21T04:06:49;100822.69;;;13.50;62.86
78825;BME280;68176;45.554;10.220;2024-02-21T04:09:18;100822.69;;;13.50;62.84
78825;BME280;68176;45.554;10.220;2024-02-21T04:11:48;100815.97;;;13.46;62.97
78825;BME280;68176;45.554;10.220;2024-02-21T04:14:18;100817.66;;;13.47;62.94
78825;BME280;68176;45.554;10.220;2024-02-21T04:16:49;100821.25;;;13.46;63.04
78825;BME280;68176;45.554;10.220;2024-02-21T04:19:18;100811.09;;;13.42;62.74
78825;BME280;68176;45.554;10.220;2024-02-21T04:21:48;100818.88;;;13.43;62.97
78825;BME280;68176;45.554;10.220;2024-02-21T04:24:19;100829.16;;;13.46;62.88
78825;BME280;68176;45.554;10.220;2024-02-21T04:26:48;100818.44;;;13.38;62.98
78825;BME280;68176;45.554;10.220;2024-02-21T04:29:18;100829.81;;;13.39;62.86
78825;BME280;68176;45.554;10.220;2024-02-21T04:31:48;100842.84;;;13.40;62.92
78825;BME280;68176;45.554;10.220;2024-02-21T04:34:18;100847.41;;;13.38;62.87
78825;BME280;68176;45.554;10.220;2024-02-21T04:36:49;100842.00;;;13.40;62.93
78825;BME280;68176;45.554;10.220;2024-02-21T04:39:18;100840.34;;;13.39;62.83
78825;BME280;68176;45.554;10.220;2024-02-21T04:41:49;100830.91;;;13.36;63.10
78825;BME280;68176;45.554;10.220;2024-02-21T04:44:19;100842.50;;;13.33;62.86
78825;BME280;68176;45.554;10.220;2024-02-21T04:46:48;100842.50;;;13.33;63.00
78825;BME280;68176;45.554;10.220;2024-02-21T04:49:19;100846.81;;;13.34;62.83
78825;BME280;68176;45.554;10.220;2024-02-21T04:51:49;100838.22;;;13.32;62.79
78825;BME280;68176;45.554;10.220;2024-02-21T04:54:19;100834.00;;;13.30;63.14
78825;BME280;68176;45.554;10.220;2024-02-21T04:56:49;100836.41;;;13.33;62.86
78825;BME280;68176;45.554;10.220;2024-02-21T04:59:19;100831.97;;;13.33;62.84
78825;BME280;68176;45.554;10.220;2024-02-21T05:01:49;100828.03;;;13.28;62.91
78825;BME280;68176;45.554;10.220;2024-02-21T05:04:19;100827.09;;;13.29;63.06
78825;BME280;68176;45.554;10.220;2024-02-21T05:06:49;100824.44;;;13.29;62.83
78825;BME280;68176;45.554;10.220;2024-02-21T05:09:19;100819.44;;;13.26;62.81
78825;BME280;68176;45.554;10.220;2024-02-21T05:11:49;100823.72;;;13.27;63.14
78825;BME280;68176;45.554;10.220;2024-02-21T05:14:19;100808.91;;;13.26;62.94
78825;BME280;68176;45.554;10.220;2024-02-21T05:16:49;100800.25;;;13.24;62.92
78825;BME280;68176;45.554;10.220;2024-02-21T05:19:19;100795.72;;;13.26;62.92
78825;BME280;68176;45.554;10.220;2024-02-21T05:21:49;100796.94;;;13.22;62.81
78825;BME280;68176;45.554;10.220;2024-02-21T05:24:19;100803.88;;;13.23;62.74
78825;BME280;68176;45.554;10.220;2024-02-21T05:26:49;100808.66;;;13.18;62.90
78825;BME280;68176;45.554;10.220;2024-02-21T05:29:19;100809.16;;;13.23;62.68
78825;BME280;68176;45.554;10.220;2024-02-21T05:34:20;100803.41;;;13.18;63.03
78825;BME280;68176;45.554;10.220;2024-02-21T05:36:49;100814.91;;;13.17;62.83
78825;BME280;68176;45.554;10.220;2024-02-21T05:39:19;100816.56;;;13.18;63.13
78825;BME280;68176;45.554;10.220;2024-02-21T05:41:49;100815.88;;;13.16;62.79
78825;BME280;68176;45.554;10.220;2024-02-21T05:44:19;100821.00;;;13.17;62.80
78825;BME280;68176;45.554;10.220;2024-02-21T05:46:49;100827.25;;;13.16;62.79
78825;BME280;68176;45.554;10.220;2024-02-21T05:49:19;100825.72;;;13.14;62.98
78825;BME280;68176;45.554;10.220;2024-02-21T05:51:49;100821.38;;;13.13;63.01
78825;BME280;68176;45.554;10.220;2024-02-21T05:54:19;100826.66;;;13.13;62.92
78825;BME280;68176;45.554;10.220;2024-02-21T05:56:49;100828.59;;;13.11;62.84
78825;BME280;68176;45.554;10.220;2024-02-21T05:59:19;100827.84;;;13.09;62.74
78825;BME280;68176;45.554;10.220;2024-02-21T06:01:56;100833.72;;;13.12;62.89
78825;BME280;68176;45.554;10.220;2024-02-21T06:04:23;100821.84;;;13.07;62.83
78825;BME280;68176;45.554;10.220;2024-02-21T06:06:49;100826.19;;;13.08;62.98
78825;BME280;68176;45.554;10.220;2024-02-21T06:09:19;100824.50;;;13.07;62.73
78825;BME280;68176;45.554;10.220;2024-02-21T06:11:49;100817.69;;;13.04;63.18
78825;BME280;68176;45.554;10.220;2024-02-21T06:14:19;100823.72;;;12.40;55.13
78825;BME280;68176;45.554;10.220;2024-02-21T06:16:49;100832.69;;;12.48;57.16
78825;BME280;68176;45.554;10.220;2024-02-21T06:19:19;100820.03;;;12.53;58.35
78825;BME280;68176;45.554;10.220;2024-02-21T06:21:49;100834.00;;;12.65;58.62
78825;BME280;68176;45.554;10.220;2024-02-21T06:24:19;100831.72;;;12.71;58.83
78825;BME280;68176;45.554;10.220;2024-02-21T06:26:49;100841.91;;;12.76;58.97
78825;BME280;68176;45.554;10.220;2024-02-21T06:29:19;100837.47;;;12.76;59.37
78825;BME280;68176;45.554;10.220;2024-02-21T06:31:49;100843.47;;;12.78;59.47
78825;BME280;68176;45.554;10.220;2024-02-21T06:34:19;100845.84;;;12.81;59.37
78825;BME280;68176;45.554;10.220;2024-02-21T06:36:50;100843.31;;;12.80;59.58
78825;BME280;68176;45.554;10.220;2024-02-21T06:39:19;100841.28;;;12.83;59.98
78825;BME280;68176;45.554;10.220;2024-02-21T06:41:49;100830.88;;;12.82;59.88
78825;BME280;68176;45.554;10.220;2024-02-21T06:44:19;100835.06;;;12.84;60.17
78825;BME280;68176;45.554;10.220;2024-02-21T06:46:49;100840.34;;;12.84;60.12
78825;BME280;68176;45.554;10.220;2024-02-21T06:49:20;100846.44;;;12.85;60.18
78825;BME280;68176;45.554;10.220;2024-02-21T06:51:49;100849.06;;;12.85;60.38
78825;BME280;68176;45.554;10.220;2024-02-21T06:54:19;100853.59;;;12.83;60.29
78825;BME280;68176;45.554;10.220;2024-02-21T06:56:49;100853.75;;;12.81;60.38
78825;BME280;68176;45.554;10.220;2024-02-21T06:59:19;100852.06;;;12.80;60.75
78825;BME280;68176;45.554;10.220;2024-02-21T07:01:53;100863.88;;;12.86;60.67
78825;BME280;68176;45.554;10.220;2024-02-21T07:04:19;100857.22;;;12.82;60.67
78825;BME280;68176;45.554;10.220;2024-02-21T07:06:49;100873.84;;;12.82;60.97
78825;BME280;68176;45.554;10.220;2024-02-21T07:09:19;100869.41;;;12.83;60.73
78825;BME280;68176;45.554;10.220;2024-02-21T07:11:49;100866.06;;;12.81;60.87
78825;BME280;68176;45.554;10.220;2024-02-21T07:14:19;100875.50;;;12.83;60.61
78825;BME280;68176;45.554;10.220;2024-02-21T07:16:49;100869.66;;;12.80;60.83
78825;BME280;68176;45.554;10.220;2024-02-21T07:19:20;100869.66;;;12.80;60.86
78825;BME280;68176;45.554;10.220;2024-02-21T07:21:49;100884.38;;;12.82;61.08
78825;BME280;68176;45.554;10.220;2024-02-21T07:24:19;100876.59;;;12.81;61.23
78825;BME280;68176;45.554;10.220;2024-02-21T07:26:49;100883.66;;;12.80;61.22
78825;BME280;68176;45.554;10.220;2024-02-21T07:29:19;100883.66;;;12.80;61.05
78825;BME280;68176;45.554;10.220;2024-02-21T07:31:51;100879.56;;;12.76;61.36
78825;BME280;68176;45.554;10.220;2024-02-21T07:34:19;100877.78;;;12.77;61.03
78825;BME280;68176;45.554;10.220;2024-02-21T07:36:49;100877.53;;;12.80;61.18
78825;BME280;68176;45.554;10.220;2024-02-21T07:39:19;100881.25;;;12.77;61.27
78825;BME280;68176;45.554;10.220;2024-02-21T07:41:49;100883.03;;;12.77;61.32
78825;BME280;68176;45.554;10.220;2024-02-21T07:44:19;100881.25;;;12.77;61.26
78825;BME280;68176;45.554;10.220;2024-02-21T07:46:49;100870.72;;;12.77;61.31
78825;BME280;68176;45.554;10.220;2024-02-21T07:49:19;100876.72;;;12.79;61.17
78825;BME280;68176;45.554;10.220;2024-02-21T07:51:50;100873.38;;;12.66;54.58
78825;BME280;68176;45.554;10.220;2024-02-21T07:54:19;100879.69;;;12.30;49.16
78825;BME280;68176;45.554;10.220;2024-02-21T07:56:50;100874.94;;;11.90;48.26
78825;BME280;68176;45.554;10.220;2024-02-21T07:59:19;100870.28;;;11.69;48.51
78825;BME280;68176;45.554;10.220;2024-02-21T08:01:50;100873.28;;;11.65;48.78
78825;BME280;68176;45.554;10.220;2024-02-21T08:04:20;100871.72;;;11.62;48.28
78825;BME280;68176;45.554;10.220;2024-02-21T08:06:56;100883.84;;;11.52;48.95
78825;BME280;68176;45.554;10.220;2024-02-21T08:09:22;100882.16;;;11.51;49.25
78825;BME280;68176;45.554;10.220;2024-02-21T08:11:49;100868.72;;;11.56;48.16
78825;BME280;68176;45.554;10.220;2024-02-21T08:14:20;100878.25;;;11.57;48.34
78825;BME280;68176;45.554;10.220;2024-02-21T08:16:53;100865.75;;;11.84;48.31
78825;BME280;68176;45.554;10.220;2024-02-21T08:19:20;100863.50;;;11.91;48.64
78825;BME280;68176;45.554;10.220;2024-02-21T08:21:50;100866.88;;;12.04;47.16
78825;BME280;68176;45.554;10.220;2024-02-21T08:24:20;100874.47;;;11.85;48.02
78825;BME280;68176;45.554;10.220;2024-02-21T08:26:50;100876.44;;;11.70;48.10
78825;BME280;68176;45.554;10.220;2024-02-21T08:29:20;100883.44;;;11.93;47.89
78825;BME280;68176;45.554;10.220;2024-02-21T08:31:50;100882.97;;;11.99;47.50
78825;BME280;68176;45.554;10.220;2024-02-21T08:34:20;100891.19;;;11.95;47.74
78825;BME280;68176;45.554;10.220;2024-02-21T08:36:50;100899.94;;;11.95;48.15
78825;BME280;68176;45.554;10.220;2024-02-21T08:39:20;100892.88;;;11.96;47.35
78825;BME280;68176;45.554;10.220;2024-02-21T08:41:50;100893.03;;;12.05;47.50
78825;BME280;68176;45.554;10.220;2024-02-21T08:44:22;100890.44;;;12.16;47.89
78825;BME280;68176;45.554;10.220;2024-02-21T08:46:50;100895.47;;;12.19;48.03
78825;BME280;68176;45.554;10.220;2024-02-21T08:49:20;100897.97;;;12.21;47.98
78825;BME280;68176;45.554;10.220;2024-02-21T08:51:50;100890.44;;;12.16;47.87
78825;BME280;68176;45.554;10.220;2024-02-21T08:54:20;100887.66;;;12.07;48.21
78825;BME280;68176;45.554;10.220;2024-02-21T08:56:50;100887.06;;;12.14;48.21
78825;BME280;68176;45.554;10.220;2024-02-21T08:59:20;100878.63;;;12.22;47.72
78825;BME280;68176;45.554;10.220;2024-02-21T09:01:51;100883.13;;;12.09;47.44
78825;BME280;68176;45.554;10.220;2024-02-21T09:04:20;100878.56;;;12.00;47.21
78825;BME280;68176;45.554;10.220;2024-02-21T09:06:50;100888.38;;;12.09;47.61
78825;BME280;68176;45.554;10.220;2024-02-21T09:09:20;100890.97;;;11.98;47.55
78825;BME280;68176;45.554;10.220;2024-02-21T09:11:50;100896.13;;;11.99;47.71
78825;BME280;68176;45.554;10.220;2024-02-21T09:14:20;100890.00;;;11.88;48.23
78825;BME280;68176;45.554;10.220;2024-02-21T09:16:50;100888.09;;;11.90;48.69
78825;BME280;68176;45.554;10.220;2024-02-21T09:19:20;100881.91;;;12.02;48.57
78825;BME280;68176;45.554;10.220;2024-02-21T09:21:50;100886.94;;;12.05;47.87
78825;BME280;68176;45.554;10.220;2024-02-21T09:24:20;100872.94;;;12.04;47.46
78825;BME280;68176;45.554;10.220;2024-02-21T09:26:50;100876.19;;;12.08;47.41
78825;BME280;68176;45.554;10.220;2024-02-21T09:29:20;100872.38;;;12.12;47.50
78825;BME280;68176;45.554;10.220;2024-02-21T09:31:50;100867.72;;;12.15;48.16
78825;BME280;68176;45.554;10.220;2024-02-21T09:34:20;100878.47;;;12.23;47.71
78825;BME280;68176;45.554;10.220;2024-02-21T09:36:50;100865.94;;;12.27;47.23
78825;BME280;68176;45.554;10.220;2024-02-21T09:39:20;100864.84;;;12.29;47.62
78825;BME280;68176;45.554;10.220;2024-02-21T09:41:53;100864.75;;;12.31;48.44
78825;BME280;68176;45.554;10.220;2024-02-21T09:44:24;100860.44;;;12.30;49.65
78825;BME280;68176;45.554;10.220;2024-02-21T09:47:02;100862.13;;;12.31;50.14
78825;BME280;68176;45.554;10.220;2024-02-21T09:49:31;100860.81;;;12.37;50.56
78825;BME280;68176;45.554;10.220;2024-02-21T09:52:04;100864.13;;;12.39;50.65
78825;BME280;68176;45.554;10.220;2024-02-21T09:54:33;100857.84;;;12.41;51.14
78825;BME280;68176;45.554;10.220;2024-02-21T09:57:02;100864.41;;;12.47;51.16
78825;BME280;68176;45.554;10.220;2024-02-21T09:59:30;100859.84;;;12.49;51.39
78825;BME280;68176;45.554;10.220;2024-02-21T10:01:56;100852.78;;;12.49;51.68
78825;BME280;68176;45.554;10.220;2024-02-21T10:04:27;100861.06;;;12.56;51.74
78825;BME280;68176;45.554;10.220;2024-02-21T10:06:56;100877.19;;;12.62;51.92
78825;BME280;68176;45.554;10.220;2024-02-21T10:09:27;100873.38;;;12.66;52.09
78825;BME280;68176;45.554;10.220;2024-02-21T10:12:11;100870.63;;;12.68;52.25
78825;BME280;68176;45.554;10.220;2024-02-21T10:14:36;100876.72;;;12.68;52.43
78825;BME280;68176;45.554;10.220;2024-02-21T10:17:02;100877.91;;;12.75;52.67
78825;BME280;68176;45.554;10.220;2024-02-21T10:19:30;100874.09;;;12.79;52.51
78825;BME280;68176;45.554;10.220;2024-02-21T10:22:01;100882.44;;;12.84;52.86
78825;BME280;68176;45.554;10.220;2024-02-21T10:24:31;100876.25;;;12.86;52.79
78825;BME280;68176;45.554;10.220;2024-02-21T10:27:05;100871.09;;;12.84;52.87
78825;BME280;68176;45.554;10.220;2024-02-21T10:29:34;100868.09;;;12.89;53.30
78825;BME280;68176;45.554;10.220;2024-02-21T10:32:19;100885.06;;;12.96;53.22
78825;BME280;68176;45.554;10.220;2024-02-21T10:34:44;100862.00;;;12.88;53.42
78825;BME280;68176;45.554;10.220;2024-02-21T10:37:11;100860.06;;;12.90;53.48
78825;BME280;68176;45.554;10.220;2024-02-21T10:39:39;100860.06;;;12.90;53.65
78825;BME280;68176;45.554;10.220;2024-02-21T10:42:11;100852.66;;;12.95;53.66
78825;BME280;68176;45.554;10.220;2024-02-21T10:44:39;100847.94;;;12.99;53.63
78825;BME280;68176;45.554;10.220;2024-02-21T10:47:10;100852.97;;;13.02;53.68
78825;BME280;68176;45.554;10.220;2024-02-21T10:49:40;100846.75;;;13.03;53.80
78825;BME280;68176;45.554;10.220;2024-02-21T10:52:19;100845.66;;;13.05;53.96
78825;BME280;68176;45.554;10.220;2024-02-21T10:54:58;100841.97;;;13.08;53.86
78825;BME280;68176;45.554;10.220;2024-02-21T10:57:26;100837.56;;;13.08;54.23
78825;BME280;68176;45.554;10.220;2024-02-21T10:59:53;100838.97;;;13.12;54.16
78825;BME280;68176;45.554;10.220;2024-02-21T11:02:20;100830.97;;;13.14;54.18
78825;BME280;68176;45.554;10.220;2024-02-21T11:04:50;100828.09;;;13.17;54.09
78825;BME280;68176;45.554;10.220;2024-02-21T11:07:20;100819.94;;;13.20;54.27
78825;BME280;68176;45.554;10.220;2024-02-21T11:09:52;100816.06;;;13.24;54.40
78825;BME280;68176;45.554;10.220;2024-02-21T11:12:20;100802.19;;;13.22;54.26
78825;BME280;68176;45.554;10.220;2024-02-21T11:14:50;100818.69;;;13.24;54.50
78825;BME280;68176;45.554;10.220;2024-02-21T11:17:20;100807.91;;;13.27;54.57
78825;BME280;68176;45.554;10.220;2024-02-21T11:19:51;100799.19;;;13.26;54.70
78825;BME280;68176;45.554;10.220;2024-02-21T11:22:20;100792.84;;;13.29;54.82
78825;BME280;68176;45.554;10.220;2024-02-21T11:24:50;100792.69;;;13.30;54.75
78825;BME280;68176;45.554;10.220;2024-02-21T11:27:20;100790.06;;;13.30;55.15
78825;BME280;68176;45.554;10.220;2024-02-21T11:29:55;100782.06;;;13.32;54.98
78825;BME280;68176;45.554;10.220;2024-02-21T11:32:21;100772.59;;;13.29;55.21
78825;BME280;68176;45.554;10.220;2024-02-21T11:34:57;100768.16;;;13.30;55.54
78825;BME280;68176;45.554;10.220;2024-02-21T11:37:26;100770.78;;;13.30;55.42
78825;BME280;68176;45.554;10.220;2024-02-21T11:39:53;100770.78;;;13.30;55.82
78825;BME280;68176;45.554;10.220;2024-02-21T11:42:20;100763.47;;;13.33;55.63
78825;BME280;68176;45.554;10.220;2024-02-21T11:44:50;100760.84;;;13.33;55.68
78825;BME280;68176;45.554;10.220;2024-02-21T11:47:20;100754.81;;;13.63;50.76
78825;BME280;68176;45.554;10.220;2024-02-21T11:49:50;100750.03;;;13.99;51.33
78825;BME280;68176;45.554;10.220;2024-02-21T11:52:24;100737.56;;;14.10;50.48
78825;BME280;68176;45.554;10.220;2024-02-21T11:54:51;100748.97;;;14.11;50.42
78825;BME280;68176;45.554;10.220;2024-02-21T11:57:23;100745.94;;;14.25;49.70
78825;BME280;68176;45.554;10.220;2024-02-21T11:59:53;100734.84;;;14.31;49.68
78825;BME280;68176;45.554;10.220;2024-02-21T12:02:20;100729.34;;;14.34;49.25
78825;BME280;68176;45.554;10.220;2024-02-21T12:04:50;100725.91;;;14.43;49.45
78825;BME280;68176;45.554;10.220;2024-02-21T12:07:21;100721.44;;;14.43;48.75
78825;BME280;68176;45.554;10.220;2024-02-21T12:09:50;100716.19;;;14.53;49.29
78825;BME280;68176;45.554;10.220;2024-02-21T12:12:20;100710.25;;;14.61;49.05
78825;BME280;68176;45.554;10.220;2024-02-21T12:14:55;100699.56;;;14.81;49.65
78825;BME280;68176;45.554;10.220;2024-02-21T12:17:20;100700.25;;;14.83;48.59
78825;BME280;68176;45.554;10.220;2024-02-21T12:19:50;100695.94;;;14.82;49.09
78825;BME280;68176;45.554;10.220;2024-02-21T12:22:20;100692.19;;;14.94;49.49
78825;BME280;68176;45.554;10.220;2024-02-21T12:24:50;100695.56;;;14.97;49.09
78825;BME280;68176;45.554;10.220;2024-02-21T12:27:20;100693.47;;;14.90;49.38
78825;BME280;68176;45.554;10.220;2024-02-21T12:29:50;100680.94;;;14.92;50.02
78825;BME280;68176;45.554;10.220;2024-02-21T12:32:20;100666.91;;;15.02;49.79
78825;BME280;68176;45.554;10.220;2024-02-21T12:34:50;100677.47;;;15.02;49.84
78825;BME280;68176;45.554;10.220;2024-02-21T12:37:22;100671.50;;;15.09;49.75
78825;BME280;68176;45.554;10.220;2024-02-21T12:39:50;100669.63;;;15.29;48.88
78825;BME280;68176;45.554;10.220;2024-02-21T12:42:20;100659.34;;;15.26;48.90
78825;BME280;68176;45.554;10.220;2024-02-21T12:44:50;100658.25;;;15.19;49.13
78825;BME280;68176;45.554;10.220;2024-02-21T12:47:21;100655.00;;;15.44;48.23
78825;BME280;68176;45.554;10.220;2024-02-21T12:49:50;100657.78;;;15.42;48.32
78825;BME280;68176;45.554;10.220;2024-02-21T12:52:21;100654.88;;;15.36;49.70
78825;BME280;68176;45.554;10.220;2024-02-21T12:54:50;100638.59;;;15.40;49.61
78825;BME280;68176;45.554;10.220;2024-02-21T12:57:21;100640.69;;;15.37;49.56